Time;durP1;ratioP1;P1;durP2;ratioP2;P2;SDS_P1;SDS_P2;PMS_P1;PMS_P2;Temp;Humidity;BMP_temperature;BMP_pressure;BME280_temperature;BME280_humidity;BME280_pressure;Samples;Min_cycle;Max_cycle;Signal;HPM_P1;HPM_P2
2021/12/28 05:21:25;;;;;;;7.03;2.20;;;9.40;99.90;;;;;;5176832;22;20304;-80
2021/12/28 05:23:52;;;;;;;7.28;2.20;;;9.50;99.90;;;;;;4985502;28;20278;-80
2021/12/28 05:26:19;;;;;;;4.97;1.80;;;9.40;99.90;;;;;;4996923;28;20217;-80
2021/12/28 05:28:46;;;;;;;8.53;2.27;;;9.40;99.90;;;;;;4995573;28;20214;-80
2021/12/28 05:31:13;;;;;;;5.03;1.70;;;9.50;99.90;;;;;;4987723;28;20570;-80
2021/12/28 05:33:40;;;;;;;6.30;1.90;;;9.40;99.90;;;;;;4985759;28;20210;-80
2021/12/28 05:36:07;;;;;;;6.90;2.17;;;9.30;99.90;;;;;;4981506;28;20261;-80
2021/12/28 05:38:36;;;;;;;6.20;1.98;;;9.30;99.90;;;;;;4980340;28;20211;-80
2021/12/28 05:41:05;;;;;;;5.97;2.63;;;9.40;99.90;;;;;;4980521;28;20290;-80
2021/12/28 05:43:32;;;;;;;5.28;2.28;;;9.40;99.90;;;;;;4980692;28;20213;-80
2021/12/28 05:45:59;;;;;;;7.97;1.80;;;9.50;99.90;;;;;;4981117;28;20207;-81
2021/12/28 05:48:26;;;;;;;4.80;2.00;;;9.50;99.90;;;;;;4980886;28;20642;-81
2021/12/28 05:50:53;;;;;;;8.03;2.27;;;9.60;99.90;;;;;;4983527;28;20249;-80
2021/12/28 05:53:20;;;;;;;4.25;1.73;;;9.60;99.90;;;;;;4991090;28;20904;-81
2021/12/28 05:55:48;;;;;;;6.23;2.17;;;9.60;99.90;;;;;;4981578;28;20212;-81
2021/12/28 05:58:15;;;;;;;6.20;2.07;;;9.70;99.90;;;;;;4981240;28;20465;-80
2021/12/28 06:00:42;;;;;;;6.63;2.13;;;9.70;99.90;;;;;;4990224;28;20470;-80
2021/12/28 06:03:09;;;;;;;5.18;2.15;;;9.70;99.90;;;;;;4982905;28;20469;-81
2021/12/28 06:05:36;;;;;;;10.02;2.45;;;9.80;99.90;;;;;;4981581;28;20211;-81
2021/12/28 06:08:03;;;;;;;11.27;2.15;;;9.70;99.90;;;;;;4983086;28;20377;-81
2021/12/28 06:10:29;;;;;;;6.32;1.80;;;9.70;99.90;;;;;;4988293;28;20298;-82
2021/12/28 06:12:58;;;;;;;9.77;2.28;;;9.70;99.90;;;;;;4985896;28;20275;-81
2021/12/28 06:15:24;;;;;;;7.73;2.40;;;9.60;99.90;;;;;;4990217;28;20218;-81
2021/12/28 06:17:51;;;;;;;7.30;1.75;;;9.60;99.90;;;;;;4980620;28;20454;-81
2021/12/28 06:20:18;;;;;;;6.47;2.73;;;9.60;99.90;;;;;;4980045;28;20257;-82
2021/12/28 06:22:45;;;;;;;6.38;2.25;;;9.50;99.90;;;;;;4981053;28;20530;-81
2021/12/28 06:25:12;;;;;;;6.60;2.08;;;9.50;99.90;;;;;;4981007;28;20215;-80
2021/12/28 06:27:39;;;;;;;5.88;2.30;;;9.50;99.90;;;;;;4980417;28;20632;-81
2021/12/28 06:30:09;;;;;;;5.30;2.40;;;9.50;99.90;;;;;;4978905;28;20669;-80
2021/12/28 06:32:35;;;;;;;8.45;2.72;;;9.50;99.90;;;;;;4978060;28;20465;-80
2021/12/28 06:35:02;;;;;;;5.73;2.30;;;9.50;99.90;;;;;;4979345;28;20698;-80
2021/12/28 06:37:29;;;;;;;6.45;2.10;;;9.50;99.90;;;;;;4979185;28;20458;-80
2021/12/28 06:39:56;;;;;;;7.20;2.40;;;9.60;99.90;;;;;;4979172;28;20223;-80
2021/12/28 06:42:23;;;;;;;4.67;2.00;;;9.60;99.90;;;;;;4979664;28;20455;-80
2021/12/28 06:44:52;;;;;;;4.50;1.80;;;9.60;99.90;;;;;;4979387;28;20495;-81
2021/12/28 06:47:20;;;;;;;4.57;1.75;;;9.60;99.90;;;;;;4979129;28;20218;-80
2021/12/28 06:49:47;;;;;;;5.80;2.10;;;9.50;99.90;;;;;;4979787;28;20227;-81
2021/12/28 06:52:14;;;;;;;5.20;1.80;;;9.50;99.90;;;;;;4979475;28;20282;-80
2021/12/28 06:54:41;;;;;;;3.10;1.25;;;9.50;99.90;;;;;;4979595;28;20207;-81
2021/12/28 06:57:12;;;;;;;4.33;1.30;;;9.60;99.90;;;;;;4979044;28;20242;-80
2021/12/28 06:59:43;;;;;;;5.38;1.30;;;9.70;99.90;;;;;;4980063;28;20818;-80
2021/12/28 07:02:10;;;;;;;2.78;1.00;;;9.60;99.90;;;;;;4980442;28;20191;-80
2021/12/28 07:04:39;;;;;;;4.90;1.20;;;9.60;99.90;;;;;;4991365;28;20211;-80
2021/12/28 07:07:06;;;;;;;3.28;1.20;;;9.70;99.90;;;;;;4980275;28;20465;-80
2021/12/28 07:09:33;;;;;;;3.25;1.20;;;9.70;99.90;;;;;;4978813;28;20653;-81
2021/12/28 07:12:00;;;;;;;3.67;0.95;;;9.70;99.90;;;;;;4979245;28;20257;-80
2021/12/28 07:14:28;;;;;;;2.97;0.93;;;9.70;99.90;;;;;;4979305;28;20671;-80
2021/12/28 07:16:55;;;;;;;4.05;1.10;;;9.80;99.90;;;;;;4979829;28;20458;-80
2021/12/28 07:19:22;;;;;;;4.05;0.88;;;9.80;99.90;;;;;;4984475;28;20206;-80
2021/12/28 07:21:50;;;;;;;3.45;1.08;;;9.80;99.90;;;;;;4986275;28;20333;-80
2021/12/28 07:24:17;;;;;;;4.35;1.10;;;9.80;99.90;;;;;;4989979;28;20283;-80
2021/12/28 07:26:44;;;;;;;3.38;0.90;;;9.90;99.90;;;;;;4979639;28;20233;-80
2021/12/28 07:29:12;;;;;;;2.83;0.90;;;9.90;99.90;;;;;;4979015;28;20221;-81
2021/12/28 07:31:39;;;;;;;2.90;0.95;;;9.90;99.90;;;;;;4978137;28;20504;-80
2021/12/28 07:34:06;;;;;;;4.83;0.90;;;9.90;99.90;;;;;;4979044;28;20206;-81
2021/12/28 07:36:33;;;;;;;4.30;1.00;;;10.00;99.90;;;;;;4978426;28;20538;-81
2021/12/28 07:39:02;;;;;;;2.50;0.80;;;10.00;99.90;;;;;;4979775;28;20247;-81
2021/12/28 07:41:29;;;;;;;3.85;1.02;;;9.90;99.90;;;;;;4979781;28;20530;-81
2021/12/28 07:43:56;;;;;;;2.90;1.00;;;10.00;99.90;;;;;;4979014;28;20329;-81
2021/12/28 07:46:23;;;;;;;3.27;1.17;;;10.10;99.90;;;;;;4978631;28;20207;-81
2021/12/28 07:48:49;;;;;;;2.80;0.85;;;10.10;99.90;;;;;;4985494;28;20960;-80
2021/12/28 07:51:17;;;;;;;2.75;1.13;;;10.20;99.90;;;;;;4990381;28;20250;-80
2021/12/28 07:53:44;;;;;;;2.37;0.80;;;10.20;99.90;;;;;;4992217;28;20231;-80
2021/12/28 07:56:12;;;;;;;3.00;1.20;;;10.20;99.90;;;;;;4987848;28;20458;-82
2021/12/28 07:58:39;;;;;;;4.93;1.30;;;10.20;99.90;;;;;;4979851;28;20466;-81
2021/12/28 08:01:06;;;;;;;2.90;1.17;;;10.30;99.90;;;;;;4979178;28;20558;-81
2021/12/28 08:03:33;;;;;;;3.23;1.13;;;10.30;99.90;;;;;;4978234;28;20458;-81
2021/12/28 08:06:00;;;;;;;2.70;0.80;;;10.20;99.90;;;;;;4977936;28;20462;-81
2021/12/28 08:08:27;;;;;;;3.17;1.00;;;10.20;99.90;;;;;;4977776;28;20474;-81
2021/12/28 08:10:54;;;;;;;2.83;1.10;;;10.20;99.90;;;;;;4978220;28;20491;-81
2021/12/28 08:13:22;;;;;;;2.70;0.77;;;10.30;99.90;;;;;;4979175;28;20825;-81
2021/12/28 08:15:49;;;;;;;2.40;0.80;;;10.30;99.90;;;;;;4979093;28;20455;-81
2021/12/28 08:18:16;;;;;;;2.50;1.00;;;10.30;99.90;;;;;;4978851;28;20818;-81
2021/12/28 08:20:43;;;;;;;4.00;0.80;;;10.40;99.90;;;;;;4979307;28;20495;-81
2021/12/28 08:23:10;;;;;;;5.13;2.42;;;10.30;99.90;;;;;;4978557;28;20822;-80
2021/12/28 08:25:37;;;;;;;3.17;1.07;;;10.30;99.90;;;;;;4978940;28;20319;-80
2021/12/28 08:28:06;;;;;;;2.30;0.80;;;10.30;99.90;;;;;;4978239;28;20951;-81
2021/12/28 08:30:36;;;;;;;2.77;0.77;;;10.40;99.90;;;;;;4978868;28;20880;-81
2021/12/28 08:33:03;;;;;;;4.63;0.77;;;10.50;99.90;;;;;;4980984;28;20494;-81
2021/12/28 08:35:29;;;;;;;3.03;0.90;;;10.50;99.90;;;;;;4978273;28;20459;-81
2021/12/28 08:37:56;;;;;;;2.57;0.90;;;10.50;99.90;;;;;;4981385;28;20542;-80
2021/12/28 08:40:24;;;;;;;2.30;0.60;;;10.60;99.90;;;;;;4987507;28;20517;-81
2021/12/28 08:42:50;;;;;;;3.00;0.97;;;10.60;99.90;;;;;;4977523;28;20550;-81
2021/12/28 08:45:18;;;;;;;3.23;0.90;;;10.70;99.90;;;;;;4977651;28;20451;-81
2021/12/28 08:47:48;;;;;;;2.93;1.00;;;10.70;99.90;;;;;;4983073;28;20456;-80
2021/12/28 08:50:15;;;;;;;2.20;0.60;;;10.70;99.90;;;;;;4979579;28;20537;-81
2021/12/28 08:52:42;;;;;;;2.23;0.67;;;10.70;99.90;;;;;;4978666;28;20211;-80
2021/12/28 08:55:10;;;;;;;2.37;0.77;;;10.80;99.90;;;;;;4985293;28;20455;-80
2021/12/28 08:57:37;;;;;;;5.17;1.03;;;10.80;99.90;;;;;;4983847;28;20451;-80
2021/12/28 09:00:06;;;;;;;3.30;0.80;;;10.80;99.90;;;;;;4977991;28;20475;-80
2021/12/28 09:02:33;;;;;;;2.50;0.70;;;10.90;99.90;;;;;;4978922;28;20514;-80
2021/12/28 09:05:02;;;;;;;2.60;0.80;;;10.90;99.90;;;;;;4993732;28;20599;-80
2021/12/28 09:07:28;;;;;;;2.13;0.50;;;10.90;99.90;;;;;;4992977;28;20440;-80
2021/12/28 09:09:56;;;;;;;2.70;0.83;;;10.90;99.90;;;;;;4992323;28;20494;-80
2021/12/28 09:12:23;;;;;;;2.53;0.77;;;10.90;99.90;;;;;;4992959;28;20486;-81
2021/12/28 09:14:50;;;;;;;2.90;1.13;;;11.00;99.90;;;;;;4982324;28;20466;-81
2021/12/28 09:17:16;;;;;;;3.10;1.00;;;11.00;99.90;;;;;;4978079;28;20326;-81
2021/12/28 09:19:43;;;;;;;4.10;1.33;;;11.00;99.90;;;;;;4977467;28;20460;-83
2021/12/28 09:22:12;;;;;;;2.80;0.90;;;11.10;99.90;;;;;;4977718;28;20454;-83
2021/12/28 09:24:39;;;;;;;2.70;0.80;;;11.10;99.90;;;;;;4978601;28;20523;-81
2021/12/28 09:27:07;;;;;;;2.60;0.70;;;11.20;99.90;;;;;;4977889;28;20530;-82
2021/12/28 09:29:35;;;;;;;2.30;0.77;;;11.30;99.90;;;;;;4978487;28;20455;-81
2021/12/28 09:32:03;;;;;;;2.80;0.80;;;11.40;99.90;;;;;;4978048;28;20494;-82
2021/12/28 09:34:31;;;;;;;4.23;1.23;;;11.30;99.90;;;;;;4977499;28;20527;-83
2021/12/28 09:36:58;;;;;;;2.43;0.83;;;11.30;99.90;;;;;;4978046;28;20463;-81
2021/12/28 09:39:28;;;;;;;2.40;0.70;;;11.30;99.90;;;;;;4977433;28;20459;-81
2021/12/28 09:41:59;;;;;;;2.60;0.90;;;11.40;99.90;;;;;;4978016;28;20475;-81
2021/12/28 09:44:27;;;;;;;3.40;0.90;;;11.40;99.90;;;;;;4979834;28;20449;-82
2021/12/28 09:46:54;;;;;;;2.70;0.73;;;11.40;99.90;;;;;;4978149;28;20901;-81
2021/12/28 09:49:21;;;;;;;2.80;0.60;;;11.50;99.90;;;;;;4977164;28;20461;-81
2021/12/28 09:51:48;;;;;;;2.47;0.60;;;11.60;99.90;;;;;;4978165;28;20591;-82
2021/12/28 09:54:15;;;;;;;3.23;0.90;;;11.60;99.90;;;;;;4977192;28;20457;-81
2021/12/28 09:56:43;;;;;;;2.80;0.70;;;11.60;99.90;;;;;;4977691;28;20448;-81
2021/12/28 09:59:10;;;;;;;3.20;1.00;;;11.50;99.90;;;;;;4980589;28;20483;-79
2021/12/28 10:01:37;;;;;;;2.60;0.80;;;11.60;99.90;;;;;;4977393;28;20477;-81
2021/12/28 10:04:05;;;;;;;2.63;0.70;;;11.70;99.90;;;;;;4977243;28;20459;-81
2021/12/28 10:06:32;;;;;;;3.53;0.73;;;11.70;99.90;;;;;;4979252;28;20459;-81
2021/12/28 10:09:10;;;;;;;3.70;0.90;;;11.80;99.90;;;;;;4980544;28;20920;-80
2021/12/28 10:11:39;;;;;;;2.73;0.80;;;11.90;99.90;;;;;;4980610;28;20848;-82
2021/12/28 10:14:16;;;;;;;2.73;1.00;;;11.90;99.90;;;;;;4982493;28;20550;-82
2021/12/28 10:16:46;;;;;;;2.83;0.70;;;11.90;99.90;;;;;;4984185;28;20458;-81
2021/12/28 10:19:35;;;;;;;2.43;0.80;;;12.00;99.90;;;;;;4986372;28;20522;-81
2021/12/28 10:22:24;;;;;;;3.60;1.10;;;12.10;99.90;;;;;;4992008;28;20545;-81
2021/12/28 10:24:53;;;;;;;3.20;1.07;;;12.20;99.90;;;;;;4988368;28;20440;-81
2021/12/28 10:27:22;;;;;;;5.80;0.90;;;12.20;99.90;;;;;;4995997;28;20964;-81
2021/12/28 10:29:51;;;;;;;2.37;0.70;;;12.20;99.90;;;;;;4997575;28;20463;-82
2021/12/28 10:32:24;;;;;;;2.77;0.70;;;12.10;99.90;;;;;;4981669;28;21101;-82
2021/12/28 10:34:55;;;;;;;2.50;0.90;;;12.20;99.90;;;;;;4990429;28;20435;-81
2021/12/28 10:37:24;;;;;;;2.87;0.80;;;12.20;99.90;;;;;;4984595;28;20493;-82
2021/12/28 10:39:54;;;;;;;2.90;1.20;;;12.20;99.90;;;;;;4981493;28;20456;-82
2021/12/28 10:42:45;;;;;;;2.40;0.60;;;12.20;99.90;;;;;;4991528;28;20523;-81
2021/12/28 10:45:17;;;;;;;2.33;0.60;;;12.30;99.90;;;;;;4990143;28;20526;-80
2021/12/28 10:47:44;;;;;;;3.80;0.87;;;12.40;99.90;;;;;;4982548;28;20440;-82
2021/12/28 10:50:34;;;;;;;2.20;0.60;;;12.40;99.90;;;;;;4986766;28;20598;-81
2021/12/28 10:53:07;;;;;;;2.40;1.00;;;12.50;99.90;;;;;;4984512;28;20947;-81
2021/12/28 10:55:34;;;;;;;2.67;0.70;;;12.50;99.90;;;;;;4979933;28;20906;-82
2021/12/28 10:58:02;;;;;;;3.87;1.10;;;12.60;99.90;;;;;;4981675;28;20427;-81
2021/12/28 11:00:33;;;;;;;2.57;0.97;;;12.60;99.90;;;;;;4981043;28;20475;-81
2021/12/28 11:03:36;;;;;;;2.70;0.70;;;12.70;99.90;;;;;;4980215;28;20428;-82
2021/12/28 11:06:09;;;;;;;2.90;1.10;;;12.70;99.90;;;;;;4975212;28;20536;-80
2021/12/28 11:08:36;;;;;;;3.00;0.70;;;12.70;99.90;;;;;;4980019;28;20474;-83
2021/12/28 11:11:08;;;;;;;2.90;0.80;;;12.80;99.90;;;;;;4978709;28;20492;-81
2021/12/28 11:13:35;;;;;;;3.30;1.00;;;12.80;99.90;;;;;;4980233;28;20415;-81
2021/12/28 11:16:07;;;;;;;2.30;0.80;;;12.90;99.90;;;;;;4979518;28;20554;-81
2021/12/28 11:18:36;;;;;;;4.00;0.83;;;12.80;99.90;;;;;;4979148;28;20503;-80
2021/12/28 12:46:26;;;;;;;2.93;1.00;;;13.50;99.90;;;;;;5015247;28;20522;-90
2021/12/28 13:13:22;;;;;;;4.47;1.10;;;13.60;99.90;;;;;;4932210;29;20515;-90
2021/12/28 14:02:57;;;;;;;2.50;0.90;;;13.00;99.90;;;;;;4954664;28;20453;-88
2021/12/28 15:15:13;;;;;;;3.73;1.40;;;12.60;99.90;;;;;;4913046;29;20442;-89
2021/12/28 15:28:51;;;;;;;2.90;0.73;;;11.90;99.90;;;;;;4869843;29;20442;-90
2021/12/28 15:42:33;;;;;;;;;;;;;;;;;;;;;
2021/12/28 16:23:19;;;;;;;;;;;;;;;;;;;;;
2021/12/28 17:22:00;;;;;;;3.45;1.08;;;9.50;99.90;;;;;;5381546;23;20329;-79
2021/12/28 17:24:27;;;;;;;4.55;1.30;;;9.50;99.90;;;;;;5003336;28;20289;-79
2021/12/28 17:26:54;;;;;;;5.35;1.60;;;9.60;99.90;;;;;;5000659;28;20316;-79
2021/12/28 17:29:21;;;;;;;5.25;2.30;;;9.50;99.90;;;;;;5000871;28;20218;-80
2021/12/28 17:31:48;;;;;;;4.40;2.20;;;9.50;99.90;;;;;;5000739;28;20241;-81
2021/12/28 17:34:16;;;;;;;3.70;1.80;;;9.50;99.90;;;;;;5001064;28;20360;-81
2021/12/28 17:36:43;;;;;;;4.70;1.52;;;9.60;99.90;;;;;;5001020;28;20219;-80
2021/12/28 17:39:12;;;;;;;8.80;1.55;;;9.60;99.90;;;;;;5003708;28;20270;-80
2021/12/28 17:41:39;;;;;;;5.55;1.70;;;9.60;99.90;;;;;;5005120;28;20254;-80
2021/12/28 17:44:07;;;;;;;7.57;3.22;;;9.60;99.90;;;;;;5004979;28;20202;-81
2021/12/28 17:46:34;;;;;;;8.52;1.80;;;9.60;99.90;;;;;;5002755;28;20211;-79
2021/12/28 17:49:01;;;;;;;6.60;2.30;;;9.60;99.90;;;;;;5001906;28;20692;-79
2021/12/28 17:51:28;;;;;;;6.47;1.80;;;9.60;99.90;;;;;;5000682;28;20484;-80
2021/12/28 17:53:56;;;;;;;8.05;2.25;;;9.60;99.90;;;;;;5000300;28;20234;-80
2021/12/28 17:56:25;;;;;;;7.17;2.67;;;9.70;99.90;;;;;;5000746;28;20261;-80
2021/12/28 17:58:53;;;;;;;6.43;2.47;;;9.70;99.90;;;;;;5000679;28;20555;-80
2021/12/28 18:01:20;;;;;;;6.70;1.98;;;9.70;99.90;;;;;;5001474;28;20230;-80
2021/12/28 18:03:47;;;;;;;6.75;2.50;;;9.80;99.90;;;;;;5002502;28;20216;-80
2021/12/28 18:06:14;;;;;;;7.97;2.67;;;9.70;99.90;;;;;;5001534;28;20215;-80
2021/12/28 18:08:41;;;;;;;6.60;2.42;;;9.70;99.90;;;;;;5000663;28;20300;-80
2021/12/28 18:11:08;;;;;;;7.10;1.90;;;9.80;99.90;;;;;;5001842;28;20258;-79
2021/12/28 18:13:36;;;;;;;7.17;2.07;;;9.90;99.90;;;;;;5000437;28;20906;-80
2021/12/28 18:16:03;;;;;;;10.95;3.20;;;9.90;99.90;;;;;;5000639;28;20480;-80
2021/12/28 18:18:30;;;;;;;8.50;2.85;;;9.90;99.90;;;;;;5004146;28;20243;-80
2021/12/28 18:20:57;;;;;;;8.23;2.80;;;9.90;99.90;;;;;;5000563;28;20298;-80
2021/12/28 18:23:24;;;;;;;8.30;2.47;;;9.90;99.90;;;;;;5006597;28;20310;-80
2021/12/28 18:25:51;;;;;;;11.80;2.80;;;9.90;99.90;;;;;;5012309;28;20234;-80
2021/12/28 18:28:18;;;;;;;10.52;2.92;;;9.90;99.90;;;;;;5005124;28;20462;-80
2021/12/28 18:30:47;;;;;;;9.50;2.88;;;9.90;99.90;;;;;;5000431;28;20283;-81
2021/12/28 18:33:15;;;;;;;7.45;1.83;;;9.80;99.90;;;;;;5001290;28;20265;-80
2021/12/28 18:35:44;;;;;;;8.07;2.10;;;9.80;99.90;;;;;;5001360;28;20214;-81
2021/12/28 18:38:17;;;;;;;11.00;2.17;;;9.80;99.90;;;;;;5001051;28;20293;-80
2021/12/28 18:40:44;;;;;;;9.23;2.70;;;9.70;99.90;;;;;;5000201;28;20447;-79
2021/12/28 18:43:11;;;;;;;4.32;1.85;;;9.80;99.90;;;;;;5001598;28;20209;-80
2021/12/28 18:45:40;;;;;;;7.20;2.80;;;9.80;99.90;;;;;;5004216;28;20216;-80
2021/12/28 18:48:10;;;;;;;5.80;2.20;;;9.80;99.90;;;;;;5001997;28;20849;-80
2021/12/28 18:50:39;;;;;;;6.28;2.30;;;9.60;99.90;;;;;;5000739;28;20525;-80
2021/12/28 18:53:13;;;;;;;4.95;2.17;;;9.60;99.90;;;;;;4999434;28;20349;-80
2021/12/28 18:55:44;;;;;;;7.95;2.38;;;9.60;99.90;;;;;;5002277;28;20202;-80
2021/12/28 18:58:11;;;;;;;4.90;1.80;;;9.60;99.90;;;;;;5009909;28;20665;-80
2021/12/28 19:00:39;;;;;;;8.30;2.15;;;9.50;99.90;;;;;;5000459;28;20532;-80
2021/12/28 19:03:05;;;;;;;7.90;2.40;;;9.50;99.90;;;;;;4999332;28;20238;-80
2021/12/28 19:05:34;;;;;;;4.50;1.70;;;9.50;99.90;;;;;;5000168;28;20282;-80
2021/12/28 19:08:01;;;;;;;6.80;2.65;;;9.50;99.90;;;;;;4999266;28;20209;-81
2021/12/28 19:10:28;;;;;;;10.77;3.45;;;9.50;99.90;;;;;;4999498;28;20210;-81
2021/12/28 19:12:56;;;;;;;6.25;2.10;;;9.60;99.90;;;;;;4998796;28;20286;-81
2021/12/28 19:15:25;;;;;;;7.93;2.80;;;9.60;99.90;;;;;;4999797;28;20211;-81
2021/12/28 19:17:54;;;;;;;6.43;2.65;;;9.60;99.90;;;;;;4999473;28;20874;-81
2021/12/28 19:20:22;;;;;;;7.90;2.00;;;9.60;99.90;;;;;;4999608;28;20236;-81
2021/12/28 19:22:51;;;;;;;5.55;1.90;;;9.60;99.90;;;;;;4999246;28;20582;-80
2021/12/28 19:25:18;;;;;;;6.88;1.75;;;9.60;99.90;;;;;;5001397;28;20215;-81
2021/12/28 19:27:44;;;;;;;8.73;2.00;;;9.60;99.90;;;;;;5003537;28;20211;-80
2021/12/28 19:30:14;;;;;;;5.95;1.83;;;9.60;99.90;;;;;;5010076;28;20210;-80
2021/12/28 19:32:45;;;;;;;4.15;1.65;;;9.60;99.90;;;;;;5013546;28;20255;-80
2021/12/28 19:35:17;;;;;;;4.40;2.03;;;9.60;99.90;;;;;;5011495;28;20234;-80
2021/12/28 19:37:47;;;;;;;5.40;2.30;;;9.60;99.90;;;;;;5007390;28;20511;-80
2021/12/28 19:40:24;;;;;;;4.57;2.13;;;9.70;99.90;;;;;;5005785;28;20239;-80
2021/12/28 19:42:51;;;;;;;5.82;1.92;;;9.60;99.90;;;;;;5000047;28;20545;-81
2021/12/28 19:45:18;;;;;;;6.43;1.70;;;9.70;99.90;;;;;;4999368;28;20212;-80
2021/12/28 19:47:47;;;;;;;7.88;1.90;;;9.80;99.90;;;;;;5000108;28;20211;-80
2021/12/28 19:50:16;;;;;;;7.10;2.33;;;9.80;99.90;;;;;;5000196;28;20283;-81
2021/12/28 19:52:45;;;;;;;3.67;1.97;;;9.80;99.90;;;;;;5000721;28;20274;-81
2021/12/28 19:55:13;;;;;;;9.03;2.23;;;9.80;99.90;;;;;;5002236;28;20458;-81
2021/12/28 19:57:41;;;;;;;7.18;2.30;;;9.90;99.90;;;;;;5000456;28;20524;-81
2021/12/28 20:00:11;;;;;;;4.53;1.60;;;9.90;99.90;;;;;;4999149;28;20599;-81
2021/12/28 20:02:38;;;;;;;4.75;1.92;;;9.90;99.90;;;;;;4999242;28;20509;-80
2021/12/28 20:05:07;;;;;;;5.47;2.13;;;9.80;99.90;;;;;;4999453;28;20590;-80
2021/12/28 20:07:35;;;;;;;7.20;1.90;;;9.80;99.90;;;;;;5000084;28;20222;-81
2021/12/28 20:10:06;;;;;;;5.77;1.97;;;9.90;99.90;;;;;;5006695;28;20458;-81
2021/12/28 20:12:33;;;;;;;4.80;2.03;;;10.00;99.90;;;;;;5003552;28;20506;-80
2021/12/28 20:15:03;;;;;;;5.70;2.67;;;10.00;99.90;;;;;;5000312;28;20521;-81
2021/12/28 20:17:31;;;;;;;5.40;2.60;;;9.90;99.90;;;;;;5000070;28;20545;-80
2021/12/28 20:19:58;;;;;;;6.22;2.25;;;10.00;99.90;;;;;;5000042;28;20453;-80
2021/12/28 20:22:25;;;;;;;5.18;1.92;;;9.80;99.90;;;;;;5002648;28;20259;-81
2021/12/28 20:24:52;;;;;;;5.07;1.70;;;10.00;99.90;;;;;;5001539;28;20230;-81
2021/12/28 20:27:19;;;;;;;6.35;2.70;;;10.00;99.90;;;;;;5000901;28;20213;-81
2021/12/28 20:29:46;;;;;;;7.57;2.80;;;9.90;99.90;;;;;;5010947;28;20218;-81
2021/12/28 20:32:15;;;;;;;8.65;2.60;;;9.80;99.90;;;;;;5008268;28;20242;-81
2021/12/28 20:34:42;;;;;;;5.87;2.73;;;9.90;99.90;;;;;;5011642;28;20235;-82
2021/12/28 20:37:08;;;;;;;10.02;3.80;;;9.80;99.90;;;;;;5000657;28;20901;-80
2021/12/28 20:39:37;;;;;;;6.28;2.70;;;9.80;99.90;;;;;;5012163;28;20257;-80
2021/12/28 20:42:04;;;;;;;8.23;1.73;;;9.80;99.90;;;;;;5012048;28;20259;-81
2021/12/28 20:44:34;;;;;;;6.43;2.30;;;10.00;99.90;;;;;;5005837;28;20289;-82
2021/12/28 20:47:02;;;;;;;7.18;2.40;;;10.00;99.90;;;;;;5006497;28;20472;-81
2021/12/28 20:49:32;;;;;;;5.00;2.28;;;10.10;99.90;;;;;;5008027;28;20218;-81
2021/12/28 20:52:02;;;;;;;8.68;2.95;;;10.00;99.90;;;;;;5003823;28;20232;-80
2021/12/28 20:54:28;;;;;;;9.10;2.43;;;10.00;99.90;;;;;;5004479;28;20245;-80
2021/12/28 20:56:58;;;;;;;8.80;2.73;;;10.00;99.90;;;;;;5004360;28;20459;-80
2021/12/28 20:59:26;;;;;;;7.07;2.07;;;10.10;99.90;;;;;;5004046;28;20513;-80
2021/12/28 21:01:53;;;;;;;8.10;2.55;;;10.20;99.90;;;;;;5004241;28;20480;-81
2021/12/28 21:04:20;;;;;;;13.20;2.70;;;10.20;99.90;;;;;;5008600;28;20215;-80
2021/12/28 21:06:51;;;;;;;10.65;2.50;;;10.30;99.90;;;;;;5013744;28;20450;-80
2021/12/28 21:09:20;;;;;;;8.80;2.88;;;10.30;99.90;;;;;;5012946;28;20218;-81
2021/12/28 21:11:47;;;;;;;7.38;2.42;;;10.30;99.90;;;;;;5004537;28;20235;-80
2021/12/28 21:14:14;;;;;;;8.95;2.40;;;10.40;99.90;;;;;;5003746;28;20226;-81
2021/12/28 21:16:42;;;;;;;9.73;2.30;;;10.40;99.90;;;;;;4998547;28;20222;-81
2021/12/28 21:19:08;;;;;;;9.13;3.05;;;10.40;99.90;;;;;;5000364;28;20461;-81
2021/12/28 21:21:37;;;;;;;6.20;2.63;;;10.40;99.90;;;;;;4997899;28;20308;-81
2021/12/28 21:24:13;;;;;;;10.77;2.50;;;10.50;99.90;;;;;;5002585;28;20465;-80
2021/12/28 21:26:40;;;;;;;7.63;2.30;;;10.50;99.90;;;;;;5009685;28;20200;-79
2021/12/28 21:29:14;;;;;;;10.93;2.55;;;10.60;99.90;;;;;;5012676;28;20450;-82
2021/12/28 21:31:51;;;;;;;10.02;2.33;;;10.60;99.90;;;;;;5009171;28;20257;-79
2021/12/28 21:34:25;;;;;;;13.00;3.07;;;10.50;99.90;;;;;;5005524;28;20230;-80
2021/12/28 21:36:53;;;;;;;5.83;2.00;;;10.50;99.90;;;;;;5003796;28;20435;-80
2021/12/28 21:39:21;;;;;;;15.27;3.43;;;10.50;99.90;;;;;;5003636;28;20458;-81
2021/12/28 21:41:51;;;;;;;10.87;3.23;;;10.60;99.90;;;;;;5003538;28;20560;-80
2021/12/28 21:44:18;;;;;;;7.73;2.30;;;10.70;99.90;;;;;;5003958;28;20458;-81
2021/12/28 21:46:47;;;;;;;7.60;2.50;;;10.70;99.90;;;;;;5003822;28;20536;-81
2021/12/28 21:49:22;;;;;;;8.87;1.80;;;10.70;99.90;;;;;;5003534;28;20253;-80
2021/12/28 21:51:49;;;;;;;14.10;2.77;;;10.50;99.90;;;;;;5004120;28;20806;-80
2021/12/28 21:54:17;;;;;;;8.90;2.53;;;10.50;99.90;;;;;;5003311;28;20495;-81
2021/12/28 21:56:47;;;;;;;11.32;3.08;;;10.40;99.90;;;;;;5007610;28;20462;-80
2021/12/28 21:59:17;;;;;;;9.70;2.80;;;10.50;99.90;;;;;;5007659;28;20286;-81
2021/12/28 22:01:44;;;;;;;6.87;2.13;;;10.50;99.90;;;;;;5003730;28;20242;-81
2021/12/28 22:04:12;;;;;;;7.47;1.80;;;10.40;99.90;;;;;;5006848;28;20512;-80
2021/12/28 22:06:40;;;;;;;9.50;2.88;;;10.40;99.90;;;;;;5009259;28;20457;-79
2021/12/28 22:09:10;;;;;;;11.13;2.30;;;10.30;99.90;;;;;;5008544;28;20219;-80
2021/12/28 22:11:37;;;;;;;11.60;3.10;;;10.30;99.90;;;;;;5005737;28;20869;-81
2021/12/28 22:14:08;;;;;;;12.40;3.10;;;10.30;99.90;;;;;;5001069;28;20230;-81
2021/12/28 22:16:35;;;;;;;6.13;1.75;;;10.30;99.90;;;;;;5000007;28;20443;-81
2021/12/28 22:19:03;;;;;;;9.37;2.10;;;10.40;99.90;;;;;;5044622;23;20242;-79
2021/12/28 22:21:31;;;;;;;7.00;2.20;;;10.40;99.90;;;;;;5025853;28;20474;-82
2021/12/28 22:23:58;;;;;;;7.78;2.58;;;10.40;99.90;;;;;;5026365;28;20453;-80
2021/12/28 22:26:25;;;;;;;8.38;1.83;;;10.40;99.90;;;;;;5025574;28;20217;-82
2021/12/28 22:28:55;;;;;;;8.70;1.80;;;10.30;99.90;;;;;;5025143;28;20293;-80
2021/12/28 22:31:27;;;;;;;7.55;1.60;;;10.30;99.90;;;;;;5028342;28;20226;-80
2021/12/28 22:33:54;;;;;;;7.75;2.53;;;10.40;99.90;;;;;;5027985;28;20728;-79
2021/12/28 22:36:23;;;;;;;9.88;2.20;;;10.30;99.90;;;;;;5026563;28;20206;-81
2021/12/28 22:38:49;;;;;;;5.53;1.63;;;10.40;99.90;;;;;;5026832;28;20210;-81
2021/12/28 22:41:19;;;;;;;9.02;1.95;;;10.40;99.90;;;;;;5028562;28;20492;-81
2021/12/28 22:43:50;;;;;;;9.83;2.60;;;10.40;99.90;;;;;;5026006;28;20207;-81
2021/12/28 22:46:16;;;;;;;9.67;2.40;;;10.40;99.90;;;;;;5025754;28;20457;-80
2021/12/28 22:48:47;;;;;;;8.47;1.90;;;10.50;99.90;;;;;;5025553;28;20465;-80
2021/12/28 22:51:14;;;;;;;8.07;2.30;;;10.50;99.90;;;;;;5027031;28;20526;-81
2021/12/28 22:53:41;;;;;;;13.33;2.77;;;10.50;99.90;;;;;;5026230;28;20523;-81
2021/12/28 22:56:09;;;;;;;8.87;2.23;;;10.50;99.90;;;;;;5029068;28;20453;-80
2021/12/28 22:58:50;;;;;;;5.20;2.40;;;10.50;99.90;;;;;;5028535;28;20950;-79
2021/12/28 23:01:20;;;;;;;7.93;2.30;;;10.60;99.90;;;;;;5025825;28;21061;-80
2021/12/28 23:03:51;;;;;;;9.93;2.50;;;10.60;99.90;;;;;;5025320;28;20480;-79
2021/12/28 23:06:18;;;;;;;10.87;2.60;;;10.60;99.90;;;;;;5031004;28;20462;-80
2021/12/28 23:08:45;;;;;;;10.50;2.97;;;10.60;99.90;;;;;;5026487;28;20532;-82
2021/12/28 23:11:13;;;;;;;7.97;2.00;;;10.70;99.90;;;;;;5038937;22;21863;-82
2021/12/28 23:13:43;;;;;;;7.43;2.00;;;10.70;99.90;;;;;;4994488;28;20451;-79
2021/12/28 23:16:13;;;;;;;8.40;1.97;;;10.70;99.90;;;;;;4992091;28;20495;-78
2021/12/28 23:18:40;;;;;;;7.23;2.13;;;10.70;99.90;;;;;;4993621;28;20448;-80
2021/12/28 23:21:09;;;;;;;7.77;2.03;;;10.70;99.90;;;;;;4992429;28;20478;-83
